Pagrindinis puslapis
METAR-TAF:

METAR-TAF

Oro uostai :

Capital City Airport

Frankfortas, Kentukis, Jungtinės Amerikos Valstijos

platuma: 38-11-05N, ilguma: 084-54-12W, Aukštis: 245 m

Dabartinis oras

Ataskaita buvo paskelbta 1 valandą ir 6 minutes, ne 14:53 UTC
Vėjas 3 kt nuo kintamojo kryptimis
Temperatūra 18°C
Drėgmė 56%
Slėgis 1030 hPa
Matomumas: 16.1 km
Giedras dangus

METAR: KFFT 211453Z AUTO VRB03KT 10SM CLR 18/09 A3043 RMK AO2 SLP301 T01780089 51009

Laikas: 11:59 (15:59 UTC)


TAF: trūkstamas

Orai ataskaitas ir orų prognozės (METAR, TAF).

turimą stotys yra geltonos ir raudonos taškus žemėlapyje.

Perkelti pele per norėdami pamatyti stoties vardą.

Tada spustelėkite, norėdami matyti oro stebėjimo ir prognozės.

Norėdami pakeisti žemėlapį: spustelėkite ant žalios mygtukų su juodo kryžiaus žemyn,; žalią mygtuką su brūkšneliu, jei norite nutolinti; arba žalių rodyklių gretimoms žemėlapius.


METAR-TAF: